createdAt,value
2022-10-01T00:00:11.009Z,12
2022-10-01T00:02:42.340Z,8
2022-10-01T00:05:13.984Z,8
2022-10-01T00:07:46.205Z,8
2022-10-01T00:10:17.310Z,4
2022-10-01T00:12:48.435Z,8
2022-10-01T00:15:20.085Z,4
2022-10-01T00:17:51.168Z,8
2022-10-01T00:20:23.985Z,4
2022-10-01T00:22:55.003Z,8
2022-10-01T00:25:26.341Z,4
2022-10-01T00:27:57.962Z,8
2022-10-01T00:30:27.947Z,4
2022-10-01T00:32:58.850Z,4
2022-10-01T00:35:30.148Z,4
2022-10-01T00:38:01.978Z,8
2022-10-01T00:40:32.277Z,8
2022-10-01T00:43:03.315Z,8
2022-10-01T00:45:34.580Z,8
2022-10-01T00:48:05.892Z,4
2022-10-01T00:50:37.636Z,4
2022-10-01T00:53:07.103Z,5
2022-10-01T00:55:38.260Z,5
2022-10-01T00:58:09.502Z,7
2022-10-01T01:00:40.648Z,4
2022-10-01T01:03:11.967Z,4
2022-10-01T01:05:43.160Z,4
2022-10-01T01:08:14.419Z,7
2022-10-01T01:10:44.306Z,4
2022-10-01T01:13:14.801Z,4
2022-10-01T01:15:46.431Z,8
2022-10-01T01:18:17.840Z,4
2022-10-01T01:20:49.135Z,4
2022-10-01T01:23:22.615Z,4
2022-10-01T01:25:54.853Z,4
2022-10-01T01:28:26.157Z,4
2022-10-01T01:30:57.763Z,4
2022-10-01T01:33:29.369Z,4
2022-10-01T01:36:00.438Z,4
2022-10-01T01:38:30.795Z,4
2022-10-01T01:41:02.590Z,4
2022-10-01T01:43:34.390Z,4
2022-10-01T01:46:06.279Z,4
2022-10-01T01:48:37.703Z,4
2022-10-01T01:51:09.191Z,4
2022-10-01T01:53:40.532Z,4
2022-10-01T01:56:11.285Z,4
2022-10-01T01:58:42.840Z,4
2022-10-01T02:01:12.894Z,4
2022-10-01T02:03:44.011Z,4
2022-10-01T02:06:15.269Z,4
2022-10-01T02:08:46.966Z,4
2022-10-01T02:11:17.896Z,4
2022-10-01T02:13:49.593Z,4
2022-10-01T02:16:21.407Z,4
2022-10-01T02:18:52.648Z,4
2022-10-01T02:21:24.225Z,4
2022-10-01T02:23:55.704Z,4
2022-10-01T02:26:27.088Z,4
2022-10-01T02:28:58.764Z,4
2022-10-01T02:31:29.669Z,4
2022-10-01T02:34:01.406Z,4
2022-10-01T02:36:33.448Z,4
2022-10-01T02:39:04.329Z,4
2022-10-01T02:41:36.929Z,4
2022-10-01T02:44:08.550Z,1
2022-10-01T02:46:40.021Z,4
2022-10-01T02:49:11.902Z,4
2022-10-01T02:51:43.531Z,4
2022-10-01T02:54:15.173Z,4
2022-10-01T02:56:48.926Z,4
2022-10-01T02:59:18.749Z,4
2022-10-01T03:01:51.658Z,4
2022-10-01T03:04:23.362Z,4
2022-10-01T03:06:54.552Z,4
2022-10-01T03:09:26.232Z,4
2022-10-01T03:11:57.874Z,4
2022-10-01T03:14:29.734Z,4
2022-10-01T03:17:01.959Z,2
2022-10-01T03:19:33.549Z,4
2022-10-01T03:22:04.431Z,3
2022-10-01T03:24:35.818Z,4
2022-10-01T03:27:05.945Z,4
2022-10-01T03:29:37.532Z,4
2022-10-01T03:32:09.704Z,4
2022-10-01T03:34:40.948Z,4
2022-10-01T03:37:13.228Z,0
2022-10-01T03:39:45.114Z,0
2022-10-01T03:42:16.184Z,4
2022-10-01T03:44:48.477Z,4
2022-10-01T03:47:20.224Z,4
2022-10-01T03:49:51.374Z,4
2022-10-01T03:52:23.161Z,4
2022-10-01T03:54:55.534Z,0
2022-10-01T03:57:26.510Z,4
2022-10-01T03:59:57.920Z,0
2022-10-01T04:02:29.805Z,0
2022-10-01T04:05:01.594Z,4
2022-10-01T04:07:33.584Z,4
2022-10-01T04:10:05.806Z,4
2022-10-01T04:12:38.299Z,4
2022-10-01T04:15:09.675Z,4
2022-10-01T04:17:45.207Z,4
2022-10-01T04:20:11.900Z,0
2022-10-01T04:22:43.616Z,1
2022-10-01T04:25:15.245Z,4
2022-10-01T04:27:46.760Z,1
2022-10-01T04:30:18.430Z,4
2022-10-01T04:32:50.929Z,4
2022-10-01T04:35:22.138Z,2
2022-10-01T04:37:53.809Z,8
2022-10-01T04:40:26.173Z,8
2022-10-01T04:42:57.877Z,8
2022-10-01T04:45:29.140Z,8
2022-10-01T04:48:01.132Z,8
2022-10-01T04:50:33.128Z,8
2022-10-01T04:53:05.808Z,8
2022-10-01T04:55:38.303Z,8
2022-10-01T04:58:09.020Z,4
2022-10-01T05:00:46.491Z,4
2022-10-01T05:03:17.559Z,8
2022-10-01T05:05:48.972Z,4
2022-10-01T05:08:20.932Z,4
2022-10-01T05:10:52.575Z,4
2022-10-01T05:13:24.088Z,4
2022-10-01T05:15:55.591Z,8
2022-10-01T05:18:27.197Z,8
2022-10-01T05:20:58.903Z,4
2022-10-01T05:23:30.186Z,5
2022-10-01T05:26:01.750Z,8
2022-10-01T05:28:33.638Z,8
2022-10-01T05:31:05.855Z,12
2022-10-01T05:33:37.223Z,12
2022-10-01T05:36:08.871Z,8
2022-10-01T05:38:40.449Z,12
2022-10-01T05:41:11.852Z,8
2022-10-01T05:43:43.386Z,12
2022-10-01T05:46:14.748Z,12
2022-10-01T05:48:46.289Z,12
2022-10-01T05:51:17.863Z,11
2022-10-01T05:53:50.392Z,8
2022-10-01T05:56:20.799Z,8
2022-10-01T05:58:52.105Z,8
2022-10-01T06:01:23.599Z,8
2022-10-01T06:03:54.742Z,8
2022-10-01T06:06:26.592Z,8
2022-10-01T06:08:57.034Z,8
2022-10-01T06:11:28.227Z,4
2022-10-01T06:13:59.886Z,4
2022-10-01T06:16:31.415Z,8
2022-10-01T06:19:02.998Z,4
2022-10-01T06:21:34.444Z,8
2022-10-01T06:24:06.155Z,8
2022-10-01T06:26:37.438Z,5
2022-10-01T06:29:08.523Z,8
2022-10-01T06:31:40.079Z,7
2022-10-01T06:34:11.023Z,8
2022-10-01T06:36:43.299Z,8
2022-10-01T06:39:16.311Z,8
2022-10-01T06:41:47.364Z,8
2022-10-01T06:44:18.742Z,4
2022-10-01T06:46:49.805Z,8
2022-10-01T06:49:21.494Z,8
2022-10-01T06:51:54.032Z,8
2022-10-01T06:54:25.252Z,8
2022-10-01T06:56:56.751Z,8
2022-10-01T06:59:28.607Z,8
2022-10-01T07:01:59.525Z,12
2022-10-01T07:04:30.232Z,12
2022-10-01T07:07:01.664Z,15
2022-10-01T07:09:32.535Z,20
2022-10-01T07:12:03.785Z,17
2022-10-01T07:14:34.889Z,16
2022-10-01T07:17:06.288Z,16
2022-10-01T07:19:37.445Z,12
2022-10-01T07:22:09.359Z,19
2022-10-01T07:24:40.500Z,16
2022-10-01T07:27:11.619Z,16
2022-10-01T07:29:43.217Z,16
2022-10-01T07:32:14.790Z,16
2022-10-01T07:34:45.968Z,16
2022-10-01T07:37:16.858Z,15
2022-10-01T07:39:47.792Z,12
2022-10-01T07:42:20.160Z,12
2022-10-01T07:44:51.862Z,12
2022-10-01T07:47:23.575Z,12
2022-10-01T07:49:55.349Z,12
2022-10-01T07:52:28.160Z,12
2022-10-01T07:54:59.689Z,12
2022-10-01T07:57:31.395Z,15
2022-10-01T08:00:03.622Z,12
2022-10-01T08:02:36.222Z,10
2022-10-01T08:05:08.001Z,12
2022-10-01T08:07:38.942Z,12
2022-10-01T08:10:10.650Z,12
2022-10-01T08:12:42.315Z,12
2022-10-01T08:15:14.181Z,12
2022-10-01T08:17:48.939Z,12
2022-10-01T08:20:20.292Z,8
2022-10-01T08:22:51.865Z,11
2022-10-01T08:25:23.625Z,8
2022-10-01T08:27:54.938Z,12
2022-10-01T08:30:27.286Z,12
2022-10-01T08:32:58.639Z,9
2022-10-01T08:35:29.610Z,8
2022-10-01T08:38:01.365Z,8
2022-10-01T08:40:32.932Z,8
2022-10-01T08:43:04.419Z,12
2022-10-01T08:45:35.271Z,12
2022-10-01T08:48:07.876Z,12
2022-10-01T08:50:39.335Z,12
2022-10-01T08:53:10.518Z,12
2022-10-01T08:55:42.218Z,12
2022-10-01T08:58:13.617Z,8
2022-10-01T09:00:45.753Z,8
2022-10-01T09:03:17.661Z,12
2022-10-01T09:05:49.226Z,12
2022-10-01T09:08:21.370Z,8
2022-10-01T09:10:53.058Z,8
2022-10-01T09:13:25.759Z,8
2022-10-01T09:15:57.251Z,9
2022-10-01T09:18:28.900Z,8
2022-10-01T09:20:59.764Z,12
2022-10-01T09:23:31.077Z,8
2022-10-01T09:26:01.973Z,12
2022-10-01T09:28:33.767Z,12
2022-10-01T09:31:06.179Z,8
2022-10-01T09:33:37.541Z,12
2022-10-01T09:36:08.502Z,8
2022-10-01T09:38:41.243Z,8
2022-10-01T09:41:13.158Z,9
2022-10-01T09:43:44.536Z,11
2022-10-01T09:46:14.990Z,12
2022-10-01T09:48:49.998Z,12
2022-10-01T09:51:21.675Z,12
2022-10-01T09:53:52.856Z,8
2022-10-01T09:56:24.761Z,12
2022-10-01T09:58:55.739Z,16
2022-10-01T10:01:26.955Z,16
2022-10-01T10:04:00.148Z,12
2022-10-01T10:06:33.806Z,12
2022-10-01T10:09:04.783Z,12
2022-10-01T10:11:36.782Z,13
2022-10-01T10:14:07.942Z,13
2022-10-01T10:16:42.422Z,12
2022-10-01T10:19:14.089Z,16
2022-10-01T10:21:48.966Z,16
2022-10-01T10:24:20.258Z,16
2022-10-01T10:26:51.620Z,16
2022-10-01T10:29:24.072Z,12
2022-10-01T10:31:54.910Z,12
2022-10-01T10:34:25.907Z,16
2022-10-01T10:36:56.981Z,12
2022-10-01T10:39:31.629Z,16
2022-10-01T10:42:02.798Z,12
2022-10-01T10:44:33.941Z,19
2022-10-01T10:47:05.082Z,12
2022-10-01T10:49:36.450Z,16
2022-10-01T10:52:07.918Z,16
2022-10-01T10:54:39.851Z,24
2022-10-01T10:57:11.648Z,20
2022-10-01T10:59:47.775Z,24
2022-10-01T11:02:19.222Z,20
2022-10-01T11:04:49.961Z,20
2022-10-01T11:07:21.449Z,16
2022-10-01T11:09:52.607Z,12
2022-10-01T11:12:23.990Z,16
2022-10-01T11:14:54.906Z,20
2022-10-01T11:17:26.121Z,12
2022-10-01T11:19:57.804Z,16
2022-10-01T11:22:29.235Z,8
2022-10-01T11:25:00.169Z,12
2022-10-01T11:27:31.005Z,16
2022-10-01T11:30:02.257Z,17
2022-10-01T11:32:34.107Z,8
2022-10-01T11:35:06.079Z,20
2022-10-01T11:37:37.224Z,16
2022-10-01T11:40:06.969Z,20
2022-10-01T11:42:38.963Z,16
2022-10-01T11:45:09.426Z,13
2022-10-01T11:47:40.490Z,8
2022-10-01T11:50:11.261Z,13
2022-10-01T11:52:42.666Z,8
2022-10-01T11:55:14.529Z,20
2022-10-01T11:57:46.035Z,16
2022-10-01T12:00:16.922Z,20
2022-10-01T12:02:48.156Z,12
2022-10-01T12:05:19.472Z,12
2022-10-01T12:07:50.211Z,16
2022-10-01T12:10:21.617Z,25
2022-10-01T12:12:52.661Z,19
2022-10-01T12:15:24.379Z,16
2022-10-01T12:17:55.316Z,12
2022-10-01T12:20:26.869Z,12
2022-10-01T12:25:30.269Z,16
2022-10-01T12:28:01.677Z,20
2022-10-01T12:30:33.394Z,16
2022-10-01T12:33:06.260Z,22
2022-10-01T12:35:37.811Z,20
2022-10-01T12:38:09.379Z,17
2022-10-01T12:40:41.004Z,20
2022-10-01T12:43:13.192Z,20
2022-10-01T12:45:44.744Z,16
2022-10-01T12:48:18.929Z,12
2022-10-01T12:50:50.945Z,16
2022-10-01T12:53:22.844Z,20
2022-10-01T12:55:55.021Z,24
2022-10-01T12:58:25.918Z,16
2022-10-01T13:00:57.236Z,12
2022-10-01T13:03:28.651Z,12
2022-10-01T13:06:00.286Z,10
2022-10-01T13:08:31.609Z,8
2022-10-01T13:11:02.976Z,8
2022-10-01T13:13:34.707Z,8
2022-10-01T13:16:06.557Z,8
2022-10-01T13:18:37.663Z,8
2022-10-01T13:21:09.971Z,8
2022-10-01T13:23:41.256Z,8
2022-10-01T13:26:13.388Z,12
2022-10-01T13:28:44.586Z,8
2022-10-01T13:31:15.995Z,8
2022-10-01T13:33:46.835Z,8
2022-10-01T13:36:18.191Z,8
2022-10-01T13:38:49.602Z,4
2022-10-01T13:41:21.896Z,8
2022-10-01T13:43:55.131Z,8
2022-10-01T13:46:26.534Z,6
2022-10-01T13:48:58.176Z,4
2022-10-01T13:51:29.713Z,4
2022-10-01T13:54:01.042Z,4
2022-10-01T13:56:32.724Z,6
2022-10-01T13:59:03.635Z,4
2022-10-01T14:01:35.151Z,8
2022-10-01T14:04:07.592Z,8
2022-10-01T14:06:38.600Z,4
2022-10-01T14:09:09.816Z,4
2022-10-01T14:11:40.928Z,8
2022-10-01T14:14:13.100Z,4
2022-10-01T14:16:44.500Z,5
2022-10-01T14:19:14.149Z,5
2022-10-01T14:21:45.600Z,4
2022-10-01T14:24:17.170Z,4
2022-10-01T14:26:48.204Z,8
2022-10-01T14:29:18.228Z,8
2022-10-01T14:31:51.150Z,8
2022-10-01T14:34:22.370Z,4
2022-10-01T14:36:53.506Z,4
2022-10-01T14:39:24.656Z,4
2022-10-01T14:41:55.927Z,4
2022-10-01T14:44:27.070Z,0
2022-10-01T14:46:58.282Z,4
2022-10-01T14:49:28.889Z,0
2022-10-01T14:52:00.596Z,0
2022-10-01T14:54:31.291Z,0
2022-10-01T14:57:05.083Z,0
2022-10-01T14:59:37.196Z,0
2022-10-01T15:02:09.967Z,0
2022-10-01T15:04:43.375Z,8
2022-10-01T15:07:15.081Z,4
2022-10-01T15:09:46.954Z,0
2022-10-01T15:12:17.048Z,0
2022-10-01T15:14:49.059Z,0
2022-10-01T15:17:21.165Z,0
2022-10-01T15:19:52.336Z,0
2022-10-01T15:22:23.424Z,4
2022-10-01T15:24:55.048Z,3
2022-10-01T15:27:26.958Z,0
2022-10-01T15:29:58.489Z,0
2022-10-01T15:32:31.037Z,24
2022-10-01T15:35:02.683Z,0
2022-10-01T15:37:32.786Z,3
2022-10-01T15:40:06.262Z,0
2022-10-01T15:42:38.628Z,4
2022-10-01T15:45:09.966Z,0
2022-10-01T15:47:44.169Z,0
2022-10-01T15:50:16.095Z,0
2022-10-01T15:52:47.477Z,0
2022-10-01T15:55:19.050Z,0
2022-10-01T15:57:50.992Z,0
2022-10-01T16:00:22.947Z,4
2022-10-01T16:02:54.778Z,16
2022-10-01T16:05:26.224Z,4
2022-10-01T16:07:57.985Z,0
2022-10-01T16:10:29.704Z,4
2022-10-01T16:13:03.270Z,4
2022-10-01T16:15:33.086Z,0
2022-10-01T16:18:05.905Z,0
2022-10-01T16:20:37.695Z,0
2022-10-01T16:23:09.147Z,2
2022-10-01T16:25:41.739Z,1
2022-10-01T16:28:14.931Z,4
2022-10-01T16:30:46.802Z,4
2022-10-01T16:33:16.550Z,2
2022-10-01T16:35:48.193Z,0
2022-10-01T16:38:19.702Z,4
2022-10-01T16:40:51.381Z,0
2022-10-01T16:43:23.618Z,4
2022-10-01T16:45:55.343Z,13
2022-10-01T16:48:29.663Z,16
2022-10-01T16:51:01.352Z,8
2022-10-01T16:53:32.940Z,8
2022-10-01T16:56:04.520Z,8
2022-10-01T16:58:34.370Z,8
2022-10-01T17:01:06.348Z,12
2022-10-01T17:03:37.959Z,8
2022-10-01T17:06:09.772Z,8
2022-10-01T17:08:41.539Z,8
2022-10-01T17:11:13.465Z,4
2022-10-01T17:13:45.227Z,8
2022-10-01T17:16:16.491Z,4
2022-10-01T17:18:47.963Z,4
2022-10-01T17:21:18.300Z,8
2022-10-01T17:23:53.548Z,8
2022-10-01T17:26:23.092Z,12
2022-10-01T17:28:55.560Z,21
2022-10-01T17:31:26.986Z,17
2022-10-01T17:33:59.319Z,4
2022-10-01T17:36:30.640Z,8
2022-10-01T17:39:00.632Z,9
2022-10-01T17:41:31.698Z,8
2022-10-01T17:44:03.237Z,8
2022-10-01T17:46:35.450Z,4
2022-10-01T17:49:06.804Z,8
2022-10-01T17:51:38.086Z,8
2022-10-01T17:54:09.773Z,8
2022-10-01T17:56:40.690Z,8
2022-10-01T17:59:12.176Z,8
2022-10-01T18:01:45.148Z,11
2022-10-01T18:04:16.241Z,8
2022-10-01T18:06:47.406Z,4
2022-10-01T18:09:18.904Z,8
2022-10-01T18:11:48.749Z,12
2022-10-01T18:14:21.002Z,8
2022-10-01T18:16:53.243Z,8
2022-10-01T18:21:55.240Z,6
2022-10-01T18:24:26.859Z,8
2022-10-01T18:26:58.442Z,8
2022-10-01T18:29:30.827Z,7
2022-10-01T18:32:06.791Z,8
2022-10-01T18:34:37.595Z,6
2022-10-01T18:37:09.256Z,7
2022-10-01T18:39:41.949Z,8
2022-10-01T18:42:14.713Z,4
2022-10-01T18:44:45.756Z,4
2022-10-01T18:47:19.072Z,4
2022-10-01T18:49:51.487Z,4
2022-10-01T18:52:23.080Z,4
2022-10-01T18:54:55.992Z,4
2022-10-01T18:57:28.303Z,4
2022-10-01T18:59:59.959Z,4
2022-10-01T19:02:31.722Z,4
2022-10-01T19:05:03.157Z,5
2022-10-01T19:07:34.767Z,8
2022-10-01T19:10:07.594Z,4
2022-10-01T19:12:39.277Z,6
2022-10-01T19:15:10.994Z,4
2022-10-01T19:17:42.304Z,8
2022-10-01T19:22:50.236Z,4
2022-10-01T19:25:22.636Z,4
2022-10-01T19:27:54.187Z,4
2022-10-01T19:30:25.926Z,4
2022-10-01T19:32:59.054Z,4
2022-10-01T19:35:36.820Z,4
2022-10-01T19:38:09.065Z,4
2022-10-01T19:40:41.741Z,8
2022-10-01T19:43:13.436Z,8
2022-10-01T19:48:23.136Z,8
2022-10-01T19:50:54.845Z,7
2022-10-01T19:53:26.921Z,4
2022-10-01T19:55:58.804Z,4
2022-10-01T19:58:30.784Z,4
2022-10-01T20:01:02.811Z,4
2022-10-01T20:03:37.187Z,4
2022-10-01T20:06:09.437Z,4
2022-10-01T20:08:41.667Z,7
2022-10-01T20:11:14.475Z,5
2022-10-01T20:13:46.160Z,5
2022-10-01T20:16:17.968Z,5
2022-10-01T20:18:49.686Z,4
2022-10-01T20:21:28.447Z,4
2022-10-01T20:23:59.623Z,3
2022-10-01T20:26:31.620Z,4
2022-10-01T20:29:02.822Z,4
2022-10-01T20:31:34.721Z,4
2022-10-01T20:34:08.926Z,4
2022-10-01T20:36:41.398Z,4
2022-10-01T20:39:12.680Z,4
2022-10-01T20:41:44.985Z,4
2022-10-01T20:44:17.787Z,4
2022-10-01T20:46:49.612Z,4
2022-10-01T20:49:22.296Z,4
2022-10-01T20:51:53.228Z,4
2022-10-01T20:54:25.628Z,4
2022-10-01T20:56:57.227Z,5
2022-10-01T20:59:28.942Z,4
2022-10-01T21:01:59.925Z,4
2022-10-01T21:04:31.245Z,5
2022-10-01T21:07:03.165Z,4
2022-10-01T21:09:36.385Z,4
2022-10-01T21:12:07.948Z,4
2022-10-01T21:14:39.800Z,4
2022-10-01T21:17:11.967Z,4
2022-10-01T21:19:42.317Z,4
2022-10-01T21:22:14.726Z,0
2022-10-01T21:24:45.720Z,4
2022-10-01T21:27:17.664Z,0
2022-10-01T21:29:49.420Z,3
2022-10-01T21:32:21.413Z,4
2022-10-01T21:34:53.257Z,4
2022-10-01T21:37:24.954Z,4
2022-10-01T21:39:56.260Z,0
2022-10-01T21:42:28.428Z,4
2022-10-01T21:45:00.076Z,3
2022-10-01T21:47:31.651Z,4
2022-10-01T21:50:03.530Z,4
2022-10-01T21:52:34.728Z,1
2022-10-01T21:55:06.487Z,4
2022-10-01T21:57:38.464Z,4
2022-10-01T22:00:10.322Z,4
2022-10-01T22:02:42.181Z,4
2022-10-01T22:05:14.288Z,4
2022-10-01T22:07:45.903Z,0
2022-10-01T22:10:17.048Z,0
2022-10-01T22:12:47.940Z,4
2022-10-01T22:15:18.853Z,4
2022-10-01T22:17:50.022Z,4
2022-10-01T22:20:21.169Z,4
2022-10-01T22:22:52.197Z,4
2022-10-01T22:25:23.268Z,8
2022-10-01T22:27:55.078Z,4
2022-10-01T22:30:25.480Z,5
2022-10-01T22:32:56.608Z,4
2022-10-01T22:35:28.030Z,4
2022-10-01T22:37:59.019Z,4
2022-10-01T22:40:30.118Z,4
2022-10-01T22:43:01.048Z,4
2022-10-01T22:45:31.975Z,4
2022-10-01T22:48:03.081Z,4
2022-10-01T22:50:34.447Z,4
2022-10-01T22:53:06.445Z,4
2022-10-01T22:55:37.898Z,7
2022-10-01T22:58:11.009Z,4
2022-10-01T23:00:43.071Z,4
2022-10-01T23:03:14.552Z,4
2022-10-01T23:05:45.772Z,4
2022-10-01T23:08:17.206Z,4
2022-10-01T23:10:48.546Z,4
2022-10-01T23:13:19.841Z,4
2022-10-01T23:15:51.204Z,4
2022-10-01T23:18:22.588Z,4
2022-10-01T23:20:53.700Z,4
2022-10-01T23:23:26.895Z,4
2022-10-01T23:25:58.215Z,4
2022-10-01T23:28:28.297Z,4
2022-10-01T23:30:59.741Z,4
2022-10-01T23:33:31.056Z,4
2022-10-01T23:36:02.497Z,4
2022-10-01T23:38:36.886Z,4
2022-10-01T23:41:08.042Z,4
2022-10-01T23:43:39.336Z,4
2022-10-01T23:46:09.077Z,7
2022-10-01T23:48:40.014Z,7
2022-10-01T23:51:11.654Z,4
2022-10-01T23:53:43.219Z,4
2022-10-01T23:56:13.985Z,8
2022-10-01T23:58:45.030Z,8
